createdAt,value
2018-04-25T00:18:24.428Z,63.54
2018-04-25T00:23:51.036Z,63.78
2018-04-25T00:26:40.283Z,63.86
2018-04-25T00:29:14.678Z,63.84
2018-04-25T00:31:52.759Z,63.88
2018-04-25T00:34:29.143Z,64.00
2018-04-25T00:37:04.924Z,63.83
2018-04-25T00:39:32.955Z,63.61
2018-04-25T00:42:01.105Z,63.66
2018-04-25T00:44:35.634Z,63.62
2018-04-25T00:47:22.041Z,63.73
2018-04-25T00:49:51.808Z,63.83
2018-04-25T00:52:21.716Z,63.77
2018-04-25T00:54:56.009Z,63.86
2018-04-25T00:57:28.227Z,64.09
2018-04-25T00:59:56.217Z,64.01
2018-04-25T01:02:42.032Z,63.87
2018-04-25T01:05:14.399Z,63.96
2018-04-25T01:11:02.549Z,64.05
2018-04-25T01:13:31.233Z,64.18
2018-04-25T01:16:02.299Z,64.04
2018-04-25T01:18:35.957Z,63.92
2018-04-25T01:21:10.109Z,64.08
2018-04-25T01:23:43.294Z,63.84
2018-04-25T01:26:14.296Z,63.43
2018-04-25T01:28:51.636Z,63.35
2018-04-25T01:31:19.675Z,63.49
2018-04-25T01:47:33.178Z,63.00
2018-04-25T01:53:29.326Z,62.89
2018-04-25T02:08:13.287Z,62.89
2018-04-25T02:13:46.575Z,62.57
2018-04-25T02:28:38.220Z,63.33
2018-04-25T02:37:09.600Z,63.38
2018-04-25T02:39:41.488Z,63.36
2018-04-25T02:42:19.790Z,63.61
2018-04-25T03:03:10.059Z,64.53
2018-04-25T03:05:37.684Z,64.50
2018-04-25T03:08:05.354Z,64.38
2018-04-25T03:10:32.961Z,64.43
2018-04-25T03:13:00.672Z,64.74
2018-04-25T03:15:28.364Z,64.80
2018-04-25T03:17:56.192Z,64.86
2018-04-25T03:20:23.805Z,65.09
2018-04-25T03:22:51.502Z,65.18
2018-04-25T03:25:19.237Z,65.05
2018-04-25T03:27:46.867Z,65.33
2018-04-25T03:30:14.504Z,65.38
2018-04-25T03:32:42.117Z,65.36
2018-04-25T03:35:09.787Z,65.40
2018-04-25T03:37:37.438Z,65.66
2018-04-25T03:40:05.158Z,65.59
2018-04-25T03:42:32.799Z,65.57
2018-04-25T03:45:00.718Z,65.88
2018-04-25T03:50:16.008Z,66.10
2018-04-25T04:03:52.164Z,66.43
2018-04-25T04:08:58.914Z,67.03
2018-04-25T04:11:39.918Z,66.97
2018-04-25T04:20:08.799Z,67.39
2018-04-25T04:22:44.849Z,67.54
2018-04-25T04:25:12.641Z,67.71
2018-04-25T04:27:43.668Z,67.84
2018-04-25T04:35:30.556Z,68.03
2018-04-25T04:40:46.928Z,68.34
2018-04-25T04:43:17.090Z,68.57
2018-04-25T04:45:45.916Z,68.64
2018-04-25T04:48:14.157Z,68.77
2018-04-25T04:50:43.006Z,68.94
2018-04-25T04:53:20.715Z,69.07
2018-04-25T04:56:01.500Z,69.10
2018-04-25T04:58:41.224Z,69.21
2018-04-25T05:01:27.920Z,69.37
2018-04-25T05:07:10.053Z,69.54
2018-04-25T05:09:40.996Z,69.45
2018-04-25T05:14:53.347Z,69.87
2018-04-25T05:17:29.091Z,70.11
2018-04-25T05:19:58.032Z,70.48
2018-04-25T05:22:33.968Z,70.73
2018-04-25T05:25:01.613Z,70.64
2018-04-25T05:27:29.289Z,70.49
2018-04-25T05:29:57.023Z,70.82
2018-04-25T05:32:24.655Z,71.09
2018-04-25T05:34:52.320Z,70.93
2018-04-25T05:37:19.974Z,70.67
2018-04-25T05:39:47.625Z,70.95
2018-04-25T05:42:15.357Z,70.87
2018-04-25T05:44:43.046Z,71.20
2018-04-25T05:47:10.754Z,71.92
2018-04-25T05:49:38.369Z,71.69
2018-04-25T05:52:05.987Z,71.92
2018-04-25T05:54:33.592Z,72.31
2018-04-25T05:57:01.233Z,72.35
2018-04-25T05:59:28.924Z,73.21
2018-04-25T06:01:56.573Z,73.03
2018-04-25T06:04:24.253Z,73.28
2018-04-25T06:06:51.910Z,73.12
2018-04-25T06:09:19.579Z,73.89
2018-04-25T06:11:47.258Z,74.09
2018-04-25T06:14:14.865Z,75.33
2018-04-25T06:16:42.489Z,76.36
2018-04-25T06:19:10.117Z,77.43
2018-04-25T06:21:37.776Z,78.43
2018-04-25T06:24:05.348Z,79.33
2018-04-25T06:26:34.114Z,81.23
2018-04-25T06:29:01.756Z,81.44
2018-04-25T06:31:29.340Z,81.11
2018-04-25T06:33:56.961Z,81.50
2018-04-25T06:36:24.569Z,81.62
2018-04-25T06:38:52.188Z,81.84
2018-04-25T06:41:19.802Z,82.14
2018-04-25T06:43:47.618Z,82.78
2018-04-25T06:46:15.235Z,82.81
2018-04-25T06:48:43.261Z,83.55
2018-04-25T06:51:11.727Z,83.58
2018-04-25T06:53:39.349Z,84.12
2018-04-25T06:56:10.861Z,83.83
2018-04-25T06:58:39.521Z,83.82
2018-04-25T07:01:07.130Z,84.29
2018-04-25T07:03:34.750Z,84.34
2018-04-25T07:06:02.442Z,84.24
2018-04-25T07:08:30.043Z,84.32
2018-04-25T07:10:57.695Z,84.02
2018-04-25T07:13:25.347Z,85.05
2018-04-25T07:15:53.043Z,85.59
2018-04-25T07:18:20.690Z,85.72
2018-04-25T07:20:48.349Z,85.63
2018-04-25T07:23:16.036Z,85.28
2018-04-25T07:25:43.685Z,84.89
2018-04-25T07:28:11.300Z,84.79
2018-04-25T07:30:38.932Z,85.05
2018-04-25T07:33:06.529Z,84.84
2018-04-25T07:35:34.162Z,83.87
2018-04-25T07:38:01.785Z,83.91
2018-04-25T07:40:29.465Z,83.38
2018-04-25T07:42:57.106Z,83.57
2018-04-25T07:45:24.755Z,82.83
2018-04-25T07:47:52.508Z,83.22
2018-04-25T07:50:20.232Z,83.22
2018-04-25T07:52:48.007Z,84.52
2018-04-25T07:55:15.616Z,83.35
2018-04-25T07:57:43.340Z,81.96
2018-04-25T08:00:10.913Z,83.11
2018-04-25T08:02:38.568Z,81.69
2018-04-25T08:05:06.207Z,80.23
2018-04-25T08:07:33.862Z,79.35
2018-04-25T08:10:01.465Z,79.73
2018-04-25T08:12:40.678Z,79.05
2018-04-25T08:15:19.913Z,77.39
2018-04-25T08:17:59.185Z,78.55
2018-04-25T08:20:38.443Z,76.29
2018-04-25T08:23:06.076Z,75.92
2018-04-25T08:25:33.754Z,76.61
2018-04-25T08:28:01.450Z,76.92
2018-04-25T08:30:29.062Z,74.88
2018-04-25T08:32:56.676Z,75.37
2018-04-25T08:35:24.359Z,73.44
2018-04-25T08:37:51.969Z,74.45
2018-04-25T08:40:19.620Z,73.12
2018-04-25T08:42:47.246Z,72.99
2018-04-25T08:45:14.952Z,71.98
2018-04-25T08:47:42.559Z,69.92
2018-04-25T08:50:10.312Z,70.40
2018-04-25T08:52:37.972Z,69.18
2018-04-25T08:55:05.538Z,70.06
2018-04-25T08:57:33.134Z,69.34
2018-04-25T09:00:01.019Z,69.45
2018-04-25T09:02:28.685Z,70.04
2018-04-25T09:04:56.358Z,69.63
2018-04-25T09:07:23.965Z,68.87
2018-04-25T09:09:51.610Z,68.39
2018-04-25T09:12:19.208Z,67.42
2018-04-25T09:14:46.847Z,66.95
2018-04-25T09:17:14.465Z,65.75
2018-04-25T09:19:42.069Z,66.25
2018-04-25T09:22:09.825Z,64.96
2018-04-25T09:24:37.458Z,65.52
2018-04-25T09:27:05.119Z,63.38
2018-04-25T09:29:32.713Z,63.78
2018-04-25T09:32:00.340Z,61.60
2018-04-25T09:34:27.971Z,61.33
2018-04-25T09:36:55.819Z,59.84
2018-04-25T09:39:23.420Z,60.73
2018-04-25T09:41:51.089Z,62.63
2018-04-25T09:44:18.722Z,63.31
2018-04-25T09:46:46.418Z,63.15
2018-04-25T09:49:14.013Z,64.03
2018-04-25T09:51:41.627Z,64.54
2018-04-25T09:54:09.340Z,63.84
2018-04-25T09:56:37.007Z,63.42
2018-04-25T09:59:04.630Z,62.59
2018-04-25T10:01:32.255Z,62.67
2018-04-25T10:03:59.928Z,61.00
2018-04-25T10:06:27.552Z,60.67
2018-04-25T10:08:55.209Z,61.36
2018-04-25T10:11:22.848Z,60.51
2018-04-25T10:13:50.541Z,58.69
2018-04-25T10:16:18.180Z,59.07
2018-04-25T10:18:45.853Z,59.38
2018-04-25T10:21:13.440Z,57.87
2018-04-25T10:23:41.135Z,56.80
2018-04-25T10:26:08.748Z,55.93
2018-04-25T10:28:36.507Z,56.79
2018-04-25T10:31:04.163Z,56.86
2018-04-25T10:33:31.832Z,56.69
2018-04-25T10:35:59.529Z,57.70
2018-04-25T10:38:27.154Z,56.58
2018-04-25T10:40:54.899Z,57.63
2018-04-25T10:43:22.608Z,58.56
2018-04-25T10:45:50.305Z,60.13
2018-04-25T10:48:17.944Z,61.43
2018-04-25T10:50:45.604Z,60.81
2018-04-25T10:53:13.280Z,59.42
2018-04-25T10:55:41.074Z,56.82
2018-04-25T10:58:08.764Z,56.22
2018-04-25T11:00:36.422Z,55.36
2018-04-25T11:03:04.056Z,56.30
2018-04-25T11:05:31.738Z,55.97
2018-04-25T11:07:59.342Z,56.35
2018-04-25T11:10:27.118Z,56.31
2018-04-25T11:12:54.724Z,55.89
2018-04-25T11:15:22.415Z,54.10
2018-04-25T11:17:50.191Z,52.31
2018-04-25T11:20:17.925Z,51.57
2018-04-25T11:22:45.526Z,50.66
2018-04-25T11:25:13.259Z,49.24
2018-04-25T11:27:40.976Z,49.10
2018-04-25T11:30:08.611Z,49.13
2018-04-25T11:32:36.326Z,48.27
2018-04-25T11:35:03.988Z,50.50
2018-04-25T11:37:31.649Z,49.58
2018-04-25T11:39:59.282Z,50.55
2018-04-25T11:42:26.970Z,51.69
2018-04-25T11:44:54.659Z,52.38
2018-04-25T11:47:22.348Z,53.78
2018-04-25T11:49:49.956Z,54.25
2018-04-25T11:52:17.732Z,54.02
2018-04-25T11:54:45.385Z,55.39
2018-04-25T11:57:12.974Z,56.25
2018-04-25T11:59:40.695Z,55.02
2018-04-25T12:02:08.218Z,53.91
2018-04-25T12:04:35.952Z,52.40
2018-04-25T12:07:03.576Z,49.81
2018-04-25T12:09:31.244Z,49.04
2018-04-25T12:11:58.853Z,48.80
2018-04-25T12:14:26.585Z,49.04
2018-04-25T12:16:54.257Z,49.89
2018-04-25T12:19:21.931Z,50.80
2018-04-25T12:21:49.530Z,51.90
2018-04-25T12:24:17.217Z,51.68
2018-04-25T12:26:44.793Z,52.41
2018-04-25T12:29:12.465Z,53.50
2018-04-25T12:31:40.102Z,53.68
2018-04-25T12:34:07.805Z,54.62
2018-04-25T12:36:35.413Z,55.09
2018-04-25T12:39:03.374Z,54.40
2018-04-25T12:41:31.016Z,54.23
2018-04-25T12:43:58.599Z,53.68
2018-04-25T12:46:26.369Z,53.36
2018-04-25T12:48:53.981Z,52.75
2018-04-25T12:51:21.712Z,52.44
2018-04-25T12:53:49.322Z,52.52
2018-04-25T12:56:16.960Z,52.26
2018-04-25T12:58:44.594Z,52.22
2018-04-25T13:01:12.261Z,50.35
2018-04-25T13:03:39.961Z,49.32
2018-04-25T13:06:08.353Z,48.88
2018-04-25T13:08:35.963Z,49.73
2018-04-25T13:11:03.639Z,49.22
2018-04-25T13:13:31.261Z,49.39
2018-04-25T13:15:58.914Z,49.55
2018-04-25T13:18:26.521Z,50.38
2018-04-25T13:20:54.191Z,50.04
2018-04-25T13:23:21.945Z,49.61
2018-04-25T13:25:49.625Z,49.25
2018-04-25T13:28:17.229Z,50.09
2018-04-25T13:30:44.911Z,49.73
2018-04-25T13:33:12.574Z,49.28
2018-04-25T13:35:40.242Z,49.01
2018-04-25T13:38:07.868Z,49.59
2018-04-25T13:40:35.578Z,49.46
2018-04-25T13:43:03.226Z,48.73
2018-04-25T13:45:30.846Z,49.29
2018-04-25T13:47:58.540Z,49.49
2018-04-25T13:50:26.180Z,49.50
2018-04-25T13:52:53.874Z,48.73
2018-04-25T13:55:21.457Z,47.46
2018-04-25T13:57:49.257Z,45.96
2018-04-25T14:00:16.840Z,44.48
2018-04-25T14:02:44.554Z,44.13
2018-04-25T14:05:12.169Z,43.40
2018-04-25T14:07:39.852Z,45.36
2018-04-25T14:10:07.481Z,44.65
2018-04-25T14:12:35.132Z,45.08
2018-04-25T14:15:02.805Z,45.60
2018-04-25T14:17:30.475Z,44.72
2018-04-25T14:19:58.137Z,44.63
2018-04-25T14:22:25.798Z,44.79
2018-04-25T14:24:53.823Z,44.77
2018-04-25T14:27:21.435Z,45.99
2018-04-25T14:29:49.107Z,46.54
2018-04-25T14:32:16.739Z,47.18
2018-04-25T14:34:44.445Z,46.89
2018-04-25T14:37:12.172Z,47.21
2018-04-25T14:39:39.816Z,47.03
2018-04-25T14:42:07.462Z,47.69
2018-04-25T14:44:35.136Z,47.55
2018-04-25T14:47:02.768Z,47.20
2018-04-25T14:49:30.440Z,47.71
2018-04-25T14:51:58.079Z,48.54
2018-04-25T14:54:25.745Z,48.88
2018-04-25T14:56:53.457Z,48.66
2018-04-25T14:59:21.111Z,49.12
2018-04-25T15:01:48.756Z,49.32
2018-04-25T15:04:16.445Z,50.14
2018-04-25T15:06:44.071Z,49.99
2018-04-25T15:09:11.788Z,49.97
2018-04-25T15:11:39.444Z,49.52
2018-04-25T15:14:07.160Z,49.47
2018-04-25T15:16:34.801Z,49.53
2018-04-25T15:19:02.570Z,49.97
2018-04-25T15:21:30.206Z,50.86
2018-04-25T15:23:57.863Z,50.86
2018-04-25T15:26:25.525Z,50.99
2018-04-25T15:28:53.150Z,51.58
2018-04-25T15:31:20.813Z,51.49
2018-04-25T15:33:48.451Z,50.89
2018-04-25T15:36:16.087Z,50.88
2018-04-25T15:38:43.691Z,50.98
2018-04-25T15:41:11.349Z,49.54
2018-04-25T15:43:38.958Z,48.68
2018-04-25T15:46:06.590Z,49.02
2018-04-25T15:48:34.246Z,47.88
2018-04-25T15:51:01.982Z,45.53
2018-04-25T15:53:29.570Z,44.10
2018-04-25T15:55:57.281Z,43.10
2018-04-25T15:58:24.902Z,42.90
2018-04-25T16:00:52.514Z,44.65
2018-04-25T16:03:20.246Z,45.72
2018-04-25T16:05:47.872Z,46.54
2018-04-25T16:08:15.575Z,47.18
2018-04-25T16:10:43.249Z,47.57
2018-04-25T16:13:10.940Z,47.78
2018-04-25T16:15:38.662Z,48.45
2018-04-25T16:18:06.317Z,47.97
2018-04-25T16:20:34.184Z,48.27
2018-04-25T16:23:01.889Z,48.38
2018-04-25T16:25:29.513Z,48.21
2018-04-25T16:27:57.150Z,48.05
2018-04-25T16:30:24.777Z,47.99
2018-04-25T16:32:52.499Z,47.80
2018-04-25T16:35:20.124Z,47.66
2018-04-25T16:37:47.765Z,47.35
2018-04-25T16:40:15.550Z,47.59
2018-04-25T16:42:43.251Z,47.46
2018-04-25T16:45:10.894Z,47.79
2018-04-25T16:47:38.513Z,47.45
2018-04-25T16:50:06.223Z,47.36
2018-04-25T16:52:33.849Z,47.48
2018-04-25T16:55:01.500Z,47.87
2018-04-25T16:57:29.187Z,47.54
2018-04-25T16:59:56.859Z,47.89
2018-04-25T17:02:24.571Z,47.46
2018-04-25T17:04:52.265Z,46.69
2018-04-25T17:07:20.049Z,46.01
2018-04-25T17:09:47.697Z,46.46
2018-04-25T17:12:15.353Z,46.96
2018-04-25T17:14:43.041Z,47.17
2018-04-25T17:17:10.659Z,47.34
2018-04-25T17:19:38.340Z,47.27
2018-04-25T17:22:06.049Z,46.34
2018-04-25T17:24:33.760Z,46.44
2018-04-25T17:27:01.386Z,47.03
2018-04-25T17:29:29.005Z,47.51
2018-04-25T17:31:56.669Z,47.52
2018-04-25T17:34:24.276Z,47.89
2018-04-25T17:36:52.019Z,47.81
2018-04-25T17:39:19.625Z,47.94
2018-04-25T17:41:47.307Z,48.36
2018-04-25T17:44:14.953Z,48.37
2018-04-25T17:46:42.641Z,48.58
2018-04-25T17:49:10.272Z,48.66
2018-04-25T17:51:37.936Z,48.53
2018-04-25T17:54:05.605Z,49.18
2018-04-25T17:56:33.363Z,48.62
2018-04-25T17:59:00.974Z,48.79
2018-04-25T18:01:28.776Z,48.71
2018-04-25T18:03:56.389Z,49.37
2018-04-25T18:06:24.142Z,49.68
2018-04-25T18:08:51.814Z,50.32
2018-04-25T18:11:19.474Z,51.04
2018-04-25T18:13:47.165Z,51.73
2018-04-25T18:16:14.823Z,52.10
2018-04-25T18:18:42.597Z,52.63
2018-04-25T18:21:10.365Z,53.15
2018-04-25T18:23:38.141Z,54.09
2018-04-25T18:26:05.789Z,54.21
2018-04-25T18:28:33.406Z,54.56
2018-04-25T18:31:01.094Z,54.45
2018-04-25T18:33:28.805Z,55.21
2018-04-25T18:35:56.421Z,54.98
2018-04-25T18:38:24.093Z,55.26
2018-04-25T18:40:51.794Z,55.04
2018-04-25T18:43:19.507Z,54.93
2018-04-25T18:45:54.445Z,55.06
2018-04-25T18:48:25.402Z,55.07
2018-04-25T18:50:55.407Z,54.40
2018-04-25T18:53:28.325Z,53.82
2018-04-25T18:56:03.484Z,53.51
2018-04-25T18:58:34.664Z,52.96
2018-04-25T19:01:02.369Z,52.20
2018-04-25T19:03:30.077Z,53.07
2018-04-25T19:05:57.778Z,52.81
2018-04-25T19:08:25.413Z,52.94
2018-04-25T19:10:53.117Z,53.01
2018-04-25T19:13:20.818Z,52.79
2018-04-25T19:15:48.613Z,52.63
2018-04-25T19:18:16.439Z,52.60
2018-04-25T19:20:44.108Z,52.88
2018-04-25T19:23:11.843Z,53.04
2018-04-25T19:25:39.602Z,53.49
2018-04-25T19:28:07.304Z,53.43
2018-04-25T19:30:35.030Z,53.61
2018-04-25T19:33:02.643Z,53.80
2018-04-25T19:35:30.352Z,53.71
2018-04-25T19:50:51.464Z,53.95
2018-04-25T19:53:19.105Z,54.14
2018-04-25T19:55:46.812Z,54.24
2018-04-25T19:58:14.473Z,54.30
2018-04-25T20:00:42.127Z,54.20
2018-04-25T20:03:09.880Z,54.36
2018-04-25T20:05:37.658Z,54.77
2018-04-25T20:08:05.331Z,55.05
2018-04-25T20:10:32.991Z,55.29
2018-04-25T20:13:00.683Z,55.11
2018-04-25T20:15:28.311Z,55.31
2018-04-25T20:17:57.434Z,55.58
2018-04-25T20:20:27.891Z,55.47
2018-04-25T20:23:00.206Z,55.20
2018-04-25T20:25:30.381Z,54.79
2018-04-25T20:27:58.245Z,54.22
2018-04-25T20:30:26.414Z,53.83
2018-04-25T20:32:55.224Z,53.44
2018-04-25T20:35:23.182Z,53.38
2018-04-25T20:37:51.732Z,53.26
2018-04-25T20:40:21.942Z,53.30
2018-04-25T20:42:50.009Z,53.51
2018-04-25T20:45:21.542Z,53.61
2018-04-25T20:47:52.231Z,53.66
2018-04-25T20:50:21.802Z,53.95
2018-04-25T20:52:49.805Z,53.95
2018-04-25T20:55:17.829Z,54.00
2018-04-25T20:57:45.790Z,54.02
2018-04-25T21:00:17.108Z,54.22
2018-04-25T21:02:48.645Z,54.22
2018-04-25T21:05:16.555Z,53.89
2018-04-25T21:07:44.147Z,54.06
2018-04-25T21:10:11.941Z,54.19
2018-04-25T21:12:39.555Z,54.52
2018-04-25T21:15:07.253Z,54.49
2018-04-25T21:17:34.971Z,54.47
2018-04-25T21:20:02.768Z,54.52
2018-04-25T21:22:30.443Z,54.75
2018-04-25T21:24:58.125Z,54.61
2018-04-25T21:27:25.674Z,54.93
2018-04-25T21:29:53.341Z,54.94
2018-04-25T21:32:20.951Z,54.96
2018-04-25T21:34:48.600Z,54.95
2018-04-25T21:37:16.209Z,54.96
2018-04-25T21:39:43.846Z,54.89
2018-04-25T21:42:11.463Z,54.68
2018-04-25T21:44:39.148Z,54.66
2018-04-25T21:47:06.749Z,54.63
2018-04-25T21:49:34.373Z,54.41
2018-04-25T21:52:02.008Z,54.60
2018-04-25T21:54:29.590Z,54.91
2018-04-25T21:56:57.230Z,55.27
2018-04-25T21:59:24.857Z,55.42
2018-04-25T22:01:52.553Z,55.34
2018-04-25T22:04:20.166Z,55.28
2018-04-25T22:06:47.816Z,54.83
2018-04-25T22:09:15.503Z,54.56
2018-04-25T22:11:43.143Z,54.35
2018-04-25T22:14:10.782Z,54.96
2018-04-25T22:16:38.425Z,54.58
2018-04-25T22:19:06.278Z,54.51
2018-04-25T22:21:33.927Z,54.69
2018-04-25T22:24:01.535Z,54.79
2018-04-25T22:26:29.194Z,54.71
2018-04-25T22:28:56.827Z,54.77
2018-04-25T22:31:24.522Z,54.76
2018-04-25T22:33:52.151Z,54.77
2018-04-25T22:36:19.838Z,54.35
2018-04-25T22:38:47.458Z,54.45
2018-04-25T22:41:15.182Z,54.52
2018-04-25T22:43:42.783Z,54.64
2018-04-25T22:46:10.423Z,54.73
2018-04-25T22:48:38.079Z,54.52
2018-04-25T22:51:05.790Z,55.04
2018-04-25T22:53:33.496Z,54.82
2018-04-25T22:56:01.119Z,54.86
2018-04-25T22:58:28.840Z,55.04
2018-04-25T23:00:56.418Z,54.88
2018-04-25T23:03:24.112Z,54.80
2018-04-25T23:05:51.723Z,54.83
2018-04-25T23:08:19.470Z,54.91
2018-04-25T23:10:47.060Z,55.16
2018-04-25T23:13:14.719Z,55.18
2018-04-25T23:15:42.341Z,55.15
2018-04-25T23:18:10.007Z,55.23
2018-04-25T23:20:37.631Z,55.23
2018-04-25T23:23:05.343Z,55.59
2018-04-25T23:25:33.030Z,55.40
2018-04-25T23:28:00.773Z,55.42
2018-04-25T23:30:28.441Z,55.46
2018-04-25T23:32:56.125Z,55.55
2018-04-25T23:35:23.779Z,55.77
2018-04-25T23:37:51.469Z,56.01
2018-04-25T23:40:19.123Z,55.99
2018-04-25T23:42:46.759Z,56.05
2018-04-25T23:45:14.473Z,56.18
2018-04-25T23:47:42.078Z,56.20
2018-04-25T23:50:09.737Z,55.97
2018-04-25T23:52:37.341Z,56.12
2018-04-25T23:55:05.299Z,56.42
2018-04-25T23:57:32.890Z,56.69
